21:24
Airports
Links
Donate
Help keep this website running!
PayPal
Bitcoin
METAR
LEMD 212100Z VRB02KT 9999 BKN043 15/08 Q1025 NOSIG
Current Weather Conditions at LEMD
VFR 21:00:00 21-10-17
Altimeter:30.27 hg
Temp:15.0°c 59°f
Dew point:8.0°c 46°f
Wind:2 knots, 2.3 mph, 1 m/s,
Variable direction
Visibility:6.21 statute miles
4300(BKN) Broken
No significant weather changes expected within 2 hours.
Past METAR reports
VFR 20:30:00 21-10-17
Altimeter:30.27 hg
Temp:16.0°c 61°f
Dew point:8.0°c 46°f
Wind:2 knots, 2.3 mph, 1 m/s,
Variable direction
Visibility:6.21 statute miles
4300(SCT) Scattered
No significant weather changes expected within 2 hours.
LEMD 212030Z VRB02KT 9999 SCT043 16/08 Q1025 NOSIG
VFR 20:00:00 21-10-17
Altimeter:30.27 hg
Temp:16.0°c 61°f
Dew point:9.0°c 48°f
Wind:2 knots, 2.3 mph, 1 m/s,
Variable direction
Visibility:6.21 statute miles
4300(SCT) Scattered
No significant weather changes expected within 2 hours.
LEMD 212000Z VRB02KT 9999 SCT043 16/09 Q1025 NOSIG
VFR 19:30:00 21-10-17
Altimeter:30.24 hg
Temp:17.0°c 63°f
Dew point:10.0°c 50°f
Wind:2 knots, 2.3 mph, 1 m/s,
Variable direction
Visibility:6.21 statute miles
6000(SCT) Scattered
4300(SCT) Scattered
No significant weather changes expected within 2 hours.
LEMD 211930Z VRB02KT 9999 SCT043 SCT060 17/10 Q1024 NOSIG
VFR 19:00:00 21-10-17
Altimeter:30.24 hg
Temp:17.0°c 63°f
Dew point:10.0°c 50°f
Wind:3 knots, 3.5 mph, 2 m/s, from 330°
Visibility:6.21 statute miles
4300(BKN) Broken
No significant weather changes expected within 2 hours.
LEMD 211900Z 33003KT 300V360 9999 BKN043 17/10 Q1024 NOSIG
VFR 18:30:00 21-10-17
Altimeter:30.24 hg
Temp:19.0°c 66°f
Dew point:9.0°c 48°f
Wind:7 knots, 8.1 mph, 4 m/s, from 320°
Visibility:6.21 statute miles
4300(BKN) Broken
No significant weather changes expected within 2 hours.
LEMD 211830Z 32007KT 290V010 9999 BKN043 19/09 Q1024 NOSIG
VFR 18:00:00 21-10-17
Altimeter:30.21 hg
Temp:19.0°c 66°f
Dew point:10.0°c 50°f
Wind:7 knots, 8.1 mph, 4 m/s, from 290°
Visibility:6.21 statute miles
4500(SCT) Scattered
No significant weather changes expected within 2 hours.
LEMD 211800Z 29007KT 270V330 9999 SCT045 19/10 Q1023 NOSIG
TAF
TAF LEMD 211700Z 2118/2224 VRB05KT 9999 FEW045 TX21/2215Z TN07/2206Z TEMPO 2120/2206 02010KT
Forecast at LEMD
18:00 21-10-17 to 00:00 23-10-17
Wind:5 Knots from 360°
Visibility:6.21 statute miles
4500FEW A few
TEMPO 20:00 21-10-17 to 06:00 22-10-17
Wind:10 Knots from 20°